createdAt,value
2023-03-30T00:00:22.225Z,100258.53
2023-03-30T00:05:26.621Z,100269.63
2023-03-30T00:10:30.824Z,100258.66
2023-03-30T00:15:34.981Z,100250.91
2023-03-30T00:20:43.889Z,100279.75
2023-03-30T00:25:48.223Z,100199.97
2023-03-30T00:30:54.243Z,100294.50
2023-03-30T00:35:59.690Z,100285.13
2023-03-30T00:41:03.858Z,100292.91
2023-03-30T00:46:08.162Z,100286.94
2023-03-30T00:51:12.869Z,100295.28
2023-03-30T00:56:21.372Z,100292.75
2023-03-30T01:01:29.794Z,100286.94
2023-03-30T01:06:36.729Z,100315.59
2023-03-30T01:11:41.288Z,100286.94
2023-03-30T01:16:53.839Z,100320.91
2023-03-30T01:22:28.197Z,100312.38
2023-03-30T01:27:40.293Z,100305.75
2023-03-30T01:32:59.372Z,100307.53
2023-03-30T01:38:18.289Z,100330.66
2023-03-30T01:43:39.243Z,100326.59
2023-03-30T01:49:12.072Z,100339.34
2023-03-30T01:54:25.321Z,100356.28
2023-03-30T01:59:47.605Z,100346.88
2023-03-30T02:04:54.673Z,100341.53
2023-03-30T02:10:03.810Z,100353.19
2023-03-30T02:15:12.931Z,100349.72
2023-03-30T02:20:18.635Z,100344.94
2023-03-30T02:25:23.904Z,100350.72
2023-03-30T02:30:34.798Z,100364.25
2023-03-30T02:35:50.503Z,100369.56
2023-03-30T02:41:08.985Z,100362.22
2023-03-30T02:46:38.575Z,100301.66
2023-03-30T02:52:09.568Z,100391.69
2023-03-30T02:57:38.414Z,100390.16
2023-03-30T03:03:29.994Z,100375.72
2023-03-30T03:08:37.747Z,100399.59
2023-03-30T03:13:46.051Z,100395.41
2023-03-30T03:18:50.403Z,100393.56
2023-03-30T03:23:54.630Z,100413.00
2023-03-30T03:28:59.729Z,100412.91
2023-03-30T03:34:03.741Z,100426.84
2023-03-30T03:39:40.649Z,100431.34
2023-03-30T03:44:47.643Z,100429.53
2023-03-30T03:49:52.349Z,100432.72
2023-03-30T03:54:56.188Z,100442.34
2023-03-30T04:00:01.669Z,100436.28
2023-03-30T04:05:16.245Z,100443.97
2023-03-30T04:10:22.129Z,100452.97
2023-03-30T04:16:02.506Z,100462.44
2023-03-30T04:21:19.086Z,100457.84
2023-03-30T04:26:42.562Z,100469.19
2023-03-30T04:32:04.665Z,100472.97
2023-03-30T04:37:31.218Z,100438.09
2023-03-30T04:42:41.116Z,100469.22
2023-03-30T04:47:54.228Z,100479.72
2023-03-30T04:53:01.207Z,100416.34
2023-03-30T04:58:05.010Z,100489.31
2023-03-30T05:03:37.853Z,100488.72
2023-03-30T05:08:53.717Z,100493.09
2023-03-30T05:14:16.331Z,100412.09
2023-03-30T05:19:30.263Z,100506.94
2023-03-30T05:25:00.149Z,100437.06
2023-03-30T05:30:24.874Z,100530.34
2023-03-30T05:35:57.839Z,100523.50
2023-03-30T05:41:23.213Z,100532.78
2023-03-30T05:46:51.388Z,100464.28
2023-03-30T05:52:23.265Z,100533.06
2023-03-30T05:57:53.596Z,100536.47
2023-03-30T06:03:06.728Z,100546.28
2023-03-30T06:08:12.839Z,100548.47
2023-03-30T06:13:17.810Z,100500.91
2023-03-30T06:18:28.119Z,100550.00
2023-03-30T06:23:38.626Z,100566.97
2023-03-30T06:28:48.610Z,100577.16
2023-03-30T06:33:52.626Z,100586.94
2023-03-30T06:38:57.174Z,100513.38
2023-03-30T06:44:01.770Z,100584.38
2023-03-30T06:49:12.920Z,100569.59
2023-03-30T06:54:21.096Z,100575.81
2023-03-30T06:59:34.580Z,100583.53
2023-03-30T07:04:57.770Z,100602.28
2023-03-30T07:10:12.969Z,100603.44
2023-03-30T07:15:17.350Z,100626.25
2023-03-30T07:20:22.940Z,100629.72
2023-03-30T07:25:47.384Z,100624.72
2023-03-30T07:31:11.197Z,100636.84
2023-03-30T07:36:17.917Z,100633.16
2023-03-30T07:41:22.041Z,100639.75
2023-03-30T07:46:30.220Z,100650.81
2023-03-30T07:51:35.242Z,100642.34
2023-03-30T07:56:46.087Z,100667.34
2023-03-30T08:01:52.710Z,100681.63
2023-03-30T08:07:15.174Z,100680.56
2023-03-30T08:12:23.153Z,100690.38
2023-03-30T08:17:27.259Z,100708.97
2023-03-30T08:22:31.208Z,100707.38
2023-03-30T08:27:35.458Z,100710.13
2023-03-30T08:32:39.889Z,100722.63
2023-03-30T08:37:44.006Z,100730.25
2023-03-30T08:43:12.882Z,100735.81
2023-03-30T08:48:26.016Z,100748.19
2023-03-30T08:53:33.906Z,100776.22
2023-03-30T08:58:40.858Z,100760.38
2023-03-30T09:04:05.889Z,100776.81
2023-03-30T09:09:17.757Z,100791.38
2023-03-30T09:14:36.450Z,100804.44
2023-03-30T09:19:58.074Z,100814.63
2023-03-30T09:25:02.358Z,100793.94
2023-03-30T09:30:28.030Z,100822.91
2023-03-30T09:35:45.807Z,100832.13
2023-03-30T09:41:18.777Z,100828.28
2023-03-30T09:46:22.887Z,100843.75
2023-03-30T09:51:31.396Z,100845.78
2023-03-30T09:56:35.250Z,100858.72
2023-03-30T10:01:39.451Z,100869.13
2023-03-30T10:06:51.463Z,100879.38
2023-03-30T10:11:56.570Z,100890.25
2023-03-30T10:17:01.979Z,100901.41
2023-03-30T10:22:19.574Z,100915.59
2023-03-30T10:27:34.808Z,100924.44
2023-03-30T10:32:39.103Z,100935.78
2023-03-30T10:37:47.688Z,100945.44
2023-03-30T10:42:59.742Z,100951.97
2023-03-30T10:48:31.857Z,100967.75
2023-03-30T10:54:03.590Z,100968.56
2023-03-30T10:59:36.883Z,100981.44
2023-03-30T11:04:46.343Z,100990.16
2023-03-30T11:09:56.585Z,100995.47
2023-03-30T11:15:39.451Z,101005.75
2023-03-30T11:21:00.373Z,101018.47
2023-03-30T11:26:13.135Z,101026.63
2023-03-30T11:31:32.108Z,101037.09
2023-03-30T11:36:41.020Z,101051.88
2023-03-30T11:42:17.412Z,101065.72
2023-03-30T11:47:36.983Z,101068.44
2023-03-30T11:53:09.402Z,101086.63
2023-03-30T11:58:35.261Z,101099.66
2023-03-30T12:04:10.789Z,101047.41
2023-03-30T12:09:27.804Z,101127.25
2023-03-30T12:14:55.228Z,101142.78
2023-03-30T12:20:33.923Z,101119.25
2023-03-30T12:26:10.892Z,101156.91
2023-03-30T12:31:16.181Z,101172.50
2023-03-30T12:36:36.340Z,101180.38
2023-03-30T12:41:43.810Z,101195.03
2023-03-30T12:47:07.472Z,101198.63
2023-03-30T12:52:36.755Z,101208.13
2023-03-30T12:57:46.878Z,101217.63
2023-03-30T13:03:03.447Z,101225.41
2023-03-30T13:08:19.801Z,101236.59
2023-03-30T13:13:45.409Z,101245.19
2023-03-30T13:18:49.174Z,101252.13
2023-03-30T13:24:03.481Z,101261.59
2023-03-30T13:29:12.396Z,101272.72
2023-03-30T13:34:34.184Z,101279.63
2023-03-30T13:39:49.174Z,101299.38
2023-03-30T13:45:23.920Z,101312.25
2023-03-30T13:50:32.126Z,101269.03
2023-03-30T13:55:58.718Z,101324.28
2023-03-30T14:01:08.457Z,101337.16
2023-03-30T14:06:15.731Z,101344.91
2023-03-30T14:11:41.756Z,101354.31
2023-03-30T14:16:45.658Z,101366.31
2023-03-30T14:21:53.919Z,101368.88
2023-03-30T14:27:14.206Z,101368.88
2023-03-30T14:32:26.813Z,101375.72
2023-03-30T14:37:32.974Z,101382.59
2023-03-30T14:42:36.914Z,101385.19
2023-03-30T14:47:41.889Z,101335.00
2023-03-30T14:52:47.765Z,101397.16
2023-03-30T14:57:52.933Z,101411.72
2023-03-30T15:03:02.375Z,101418.63
2023-03-30T15:08:07.439Z,101417.81
2023-03-30T15:13:21.814Z,101407.69
2023-03-30T15:18:29.140Z,101423.03
2023-03-30T15:23:39.506Z,101438.41
2023-03-30T15:28:50.133Z,101445.22
2023-03-30T15:34:02.827Z,101462.34
2023-03-30T15:39:34.441Z,101442.78
2023-03-30T15:44:42.005Z,101471.75
2023-03-30T15:49:50.984Z,101476.91
2023-03-30T15:54:56.500Z,101482.03
2023-03-30T16:00:10.201Z,101492.28
2023-03-30T16:05:20.664Z,101486.34
2023-03-30T16:10:29.892Z,101496.59
2023-03-30T16:15:35.105Z,101499.16
2023-03-30T16:20:39.219Z,101508.53
2023-03-30T16:25:45.293Z,101507.72
2023-03-30T16:30:53.299Z,101517.09
2023-03-30T16:35:57.315Z,101527.34
2023-03-30T16:41:03.161Z,101536.75
2023-03-30T16:46:07.943Z,101533.31
2023-03-30T16:51:13.998Z,101552.09
2023-03-30T16:56:19.865Z,101551.25
2023-03-30T17:01:25.342Z,101548.69
2023-03-30T17:06:29.301Z,101547.91
2023-03-30T17:11:33.323Z,101561.56
2023-03-30T17:16:41.029Z,101559.84
2023-03-30T17:21:46.413Z,101576.06
2023-03-30T17:26:52.971Z,101582.91
2023-03-30T17:32:20.455Z,101582.06
2023-03-30T17:37:24.433Z,101582.06
2023-03-30T17:42:29.724Z,101591.44
2023-03-30T17:47:36.626Z,101590.59
2023-03-30T17:52:42.122Z,101599.09
2023-03-30T17:57:47.494Z,101588.88
2023-03-30T18:02:53.135Z,101593.13
2023-03-30T18:07:57.216Z,101583.78
2023-03-30T18:13:01.482Z,101594.84
2023-03-30T18:18:05.847Z,101608.50
2023-03-30T18:23:10.723Z,101542.88
2023-03-30T18:28:26.056Z,101602.50
2023-03-30T18:33:29.870Z,101610.19
2023-03-30T18:38:34.450Z,101616.19
2023-03-30T18:43:39.380Z,101617.00
2023-03-30T18:48:43.494Z,101623.84
2023-03-30T18:53:47.221Z,101632.34
2023-03-30T18:58:51.148Z,101634.06
2023-03-30T19:03:54.876Z,101652.78
2023-03-30T19:08:58.835Z,101637.47
2023-03-30T19:14:04.164Z,101616.16
2023-03-30T19:19:11.489Z,101631.47
2023-03-30T19:24:16.567Z,101639.94
2023-03-30T19:29:20.616Z,101656.09
2023-03-30T19:34:24.276Z,101656.94
2023-03-30T19:39:28.218Z,101656.09
2023-03-30T19:44:32.245Z,101655.22
2023-03-30T19:49:36.812Z,101664.59
2023-03-30T19:54:40.630Z,101606.56
2023-03-30T19:59:44.337Z,101662.84
2023-03-30T20:04:48.343Z,101665.38
2023-03-30T20:09:52.263Z,101671.38
2023-03-30T20:14:56.850Z,101669.66
2023-03-30T20:20:07.419Z,101658.53
2023-03-30T20:25:14.362Z,101669.66
2023-03-30T20:30:19.290Z,101681.56
2023-03-30T20:35:25.294Z,101676.47
2023-03-30T20:40:29.180Z,101684.97
2023-03-30T20:45:33.365Z,101673.06
2023-03-30T20:50:37.905Z,101691.03
2023-03-30T20:55:43.328Z,101699.53
2023-03-30T21:00:47.933Z,101719.97
2023-03-30T21:06:01.087Z,101717.38
2023-03-30T21:11:05.254Z,101683.94
2023-03-30T21:16:09.759Z,101740.19
2023-03-30T21:21:13.989Z,101742.63
2023-03-30T21:26:19.123Z,101748.53
2023-03-30T21:31:23.525Z,101728.84
2023-03-30T21:36:27.427Z,101754.34
2023-03-30T21:41:31.480Z,101760.06
2023-03-30T21:46:35.330Z,101773.53
2023-03-30T21:51:39.384Z,101781.91
2023-03-30T21:56:43.336Z,101789.50
2023-03-30T22:01:47.105Z,101787.75
2023-03-30T22:06:51.123Z,101808.09
2023-03-30T22:11:56.022Z,101814.88
2023-03-30T22:17:00.037Z,101814.81
2023-03-30T22:22:06.284Z,101813.72
2023-03-30T22:27:10.218Z,101845.09
2023-03-30T22:32:14.725Z,101830.47
2023-03-30T22:37:18.471Z,101862.81
2023-03-30T22:42:23.289Z,101861.75
2023-03-30T22:47:27.941Z,101867.66
2023-03-30T22:52:32.682Z,101892.97
2023-03-30T22:57:36.780Z,101898.72
2023-03-30T23:02:41.253Z,101908.75
2023-03-30T23:07:46.801Z,101922.91
2023-03-30T23:12:50.729Z,101926.94
2023-03-30T23:17:54.534Z,101952.25
2023-03-30T23:22:58.545Z,101951.34
2023-03-30T23:28:04.246Z,101959.81
2023-03-30T23:33:28.327Z,101958.91
2023-03-30T23:38:32.746Z,101964.47
2023-03-30T23:43:36.799Z,101982.25
2023-03-30T23:48:41.183Z,101987.88
2023-03-30T23:53:44.950Z,101995.13
2023-03-30T23:58:48.884Z,102002.59
